Map

Track Data

SID SEASON NUMBER BASIN SUBBASIN NAME ISO_TIME NATURE LAT LON WMO_WIND WMO_PRES WMO_AGENCY TRACK_TYPE DIST2LAND LANDFALL IFLAG USA_AGENCY USA_ATCF_ID USA_LAT USA_LON USA_RECORD USA_STATUS USA_WIND USA_PRES USA_SSHS USA_R34_NE USA_R34_SE USA_R34_SW USA_R34_NW USA_R50_NE USA_R50_SE USA_R50_SW USA_R50_NW USA_R64_NE USA_R64_SE USA_R64_SW USA_R64_NW USA_POCI USA_ROCI USA_RMW USA_EYE TOKYO_LAT TOKYO_LON TOKYO_GRADE TOKYO_WIND TOKYO_PRES TOKYO_R50_DIR TOKYO_R50_LONG TOKYO_R50_SHORT TOKYO_R30_DIR TOKYO_R30_LONG TOKYO_R30_SHORT TOKYO_LAND CMA_LAT CMA_LON CMA_CAT CMA_WIND CMA_PRES HKO_LAT HKO_LON HKO_CAT HKO_WIND HKO_PRES NEWDELHI_LAT NEWDELHI_LON NEWDELHI_GRADE NEWDELHI_WIND NEWDELHI_PRES NEWDELHI_CI NEWDELHI_DP NEWDELHI_POCI REUNION_LAT REUNION_LON REUNION_TYPE REUNION_WIND REUNION_PRES REUNION_TNUM REUNION_CI REUNION_RMW REUNION_R34_NE REUNION_R34_SE REUNION_R34_SW REUNION_R34_NW REUNION_R50_NE REUNION_R50_SE REUNION_R50_SW REUNION_R50_NW REUNION_R64_NE REUNION_R64_SE REUNION_R64_SW REUNION_R64_NW BOM_LAT BOM_LON BOM_TYPE BOM_WIND BOM_PRES BOM_TNUM BOM_CI BOM_RMW BOM_R34_NE BOM_R34_SE BOM_R34_SW BOM_R34_NW BOM_R50_NE BOM_R50_SE BOM_R50_SW BOM_R50_NW BOM_R64_NE BOM_R64_SE BOM_R64_SW BOM_R64_NW BOM_ROCI BOM_POCI BOM_EYE BOM_POS_METHOD BOM_PRES_METHOD NADI_LAT NADI_LON NADI_CAT NADI_WIND NADI_PRES WELLINGTON_LAT WELLINGTON_LON WELLINGTON_WIND WELLINGTON_PRES DS824_LAT DS824_LON DS824_STAGE DS824_WIND DS824_PRES TD9636_LAT TD9636_LON TD9636_STAGE TD9636_WIND TD9636_PRES TD9635_LAT TD9635_LON TD9635_WIND TD9635_PRES TD9635_ROCI NEUMANN_LAT NEUMANN_LON NEUMANN_CLASS NEUMANN_WIND NEUMANN_PRES MLC_LAT MLC_LON MLC_CLASS MLC_WIND MLC_PRES USA_GUST BOM_GUST BOM_GUST_PER REUNION_GUST REUNION_GUST_PER USA_SEAHGT USA_SEARAD_NE USA_SEARAD_SE USA_SEARAD_SW USA_SEARAD_NW STORM_SPEED STORM_DIR
1925033S12052 1925 9 SI MM NOT_NAMED 1925-02-02 06:00:00 NR -12.2000 52.0000 reunion main 244 190 _____O________ -1 -12.2000 52.0000 99 9.90000 9 263
1925033S12052 1925 9 SI MM NOT_NAMED 1925-02-02 09:00:00 NR -12.2584 51.5229 main 190 152 _____P________ -1 -12.2584 51.5229 99 9 263
1925033S12052 1925 9 SI MM NOT_NAMED 1925-02-02 12:00:00 NR -12.3214 51.0482 main 142 101 _____P________ -1 -12.3214 51.0482 99 9 262
1925033S12052 1925 9 SI MM NOT_NAMED 1925-02-02 15:00:00 NR -12.3943 50.5786 main 101 93 _____P________ -1 -12.3943 50.5786 99 6 261
1925033S12052 1925 9 SI MM NOT_NAMED 1925-02-02 18:00:00 NR -12.4062 50.4735 main 93 54 _____P____O___ -1 -12.4828 50.1169 99 -12.1000 51.9000 2 5 258
1925033S12052 1925 9 SI MM NOT_NAMED 1925-02-02 21:00:00 NR -12.5050 50.0611 main 54 0 _____P____P___ -1 -12.5921 49.6656 99 -12.3308 50.8521 2 10 255
1925033S12052 1925 9 SI MM NOT_NAMED 1925-02-03 00:00:00 NR -12.6547 49.4994 main 0 0 _____P____P___ -1 -12.7277 49.2273 99 -12.5574 49.8622 2 12 254
1925033S12052 1925 9 SI MM NOT_NAMED 1925-02-03 03:00:00 NR -12.8377 48.8979 main 10 10 _____P____P___ -1 -12.8952 48.8046 99 -12.7801 48.9912 2 12 251
1925033S12052 1925 9 SI MM NOT_NAMED 1925-02-03 06:00:00 TS -13.0444 48.3444 reunion main 55 33 _____O___OO___ -1 -13.1000 48.4000 99 9.90000 -13.0000 48.3000 TC 35 -13.0000 48.3000 2 10 245
1925033S12052 1925 9 SI MM NOT_NAMED 1925-02-03 09:00:00 TS -13.2774 47.9223 main 35 31 _____P___PP___ -1 -13.3464 48.0155 99 -13.2502 47.9277 TC 35 -13.2221 47.8265 2 9 236
1925033S12052 1925 9 SI MM NOT_NAMED 1925-02-03 12:00:00 TS -13.5359 47.5891 main 39 34 _____P___OP___ -1 -13.6336 47.6515 99 -13.5000 47.6000 TC 35 -13.4652 47.5186 2 8 227
1925033S12052 1925 9 SI MM NOT_NAMED 1925-02-03 15:00:00 TS -13.8242 47.3172 main 64 64 _____P___PP___ -1 -13.9595 47.3081 99 -13.7624 47.3423 TC 35 -13.7508 47.3014 2 8 219
1925033S12052 1925 9 SI MM NOT_NAMED 1925-02-03 18:00:00 TS -14.1741 47.0617 main 68 62 _____P___OO___ -1 -14.3222 46.9851 99 -14.1000 47.1000 TC 35 -14.1000 47.1000 2 10 215
1925033S12052 1925 9 SI MM NOT_NAMED 1925-02-03 21:00:00 TS -14.6083 46.7581 main 63 35 _____P___PP___ -1 -14.7196 46.6828 99 -14.5700 46.8075 TC 35 -14.5354 46.7840 2 11 212
1925033S12052 1925 9 SI MM NOT_NAMED 1925-02-04 00:00:00 TS -15.0941 46.4572 main 35 15 _____P___OP___ -1 -15.1497 46.4011 99 -15.1000 46.5000 TC 35 -15.0326 46.4704 2 11 210
1925033S12052 1925 9 SI MM NOT_NAMED 1925-02-04 03:00:00 TS -15.5913 46.1655 main 15 0 _____P___PP___ -1 -15.6105 46.1401 99 -15.6000 46.1850 TC 35 -15.5635 46.1715 2 11 208
1925033S12052 1925 9 SI MM NOT_NAMED 1925-02-04 06:00:00 TS -16.1000 45.9000 reunion main 0 0 _____O___OO___ -1 -16.1000 45.9000 99 9.90000 -16.1000 45.9000 TC 35 -16.1000 45.9000 2 11 206
1925033S12052 1925 9 SI MM NOT_NAMED 1925-02-04 09:00:00 TS -16.6009 45.6529 main 0 0 _____P___PP___ -1 -16.6231 45.6113 99 -16.5999 45.6848 TC 35 -16.5795 45.6625 2 11 204
1925033S12052 1925 9 SI MM NOT_NAMED 1925-02-04 12:00:00 TS -17.1151 45.4307 main 0 0 _____P___OP___ -1 -17.1830 45.3380 99 -17.1000 45.5000 TC 35 -17.0623 45.4542 2 11 202
1925033S12052 1925 9 SI MM NOT_NAMED 1925-02-04 15:00:00 TS -17.6392 45.2190 main 0 0 _____P___PP___ -1 -17.7686 45.0882 99 -17.5850 45.2998 TC 35 -17.5640 45.2688 2 11 200
1925033S12052 1925 9 SI MM NOT_NAMED 1925-02-04 18:00:00 TS -18.1897 45.0236 main 0 0 _____P___OO___ -1 -18.3690 44.8707 99 -18.1000 45.1000 TC 35 -18.1000 45.1000 2 12 198
1925033S12052 1925 9 SI MM NOT_NAMED 1925-02-04 21:00:00 TS -18.7894 44.8210 main 0 0 _____P___PP___ -1 -18.9733 44.6941 99 -18.6775 44.8851 TC 35 -18.7175 44.8839 2 13 196
1925033S12052 1925 9 SI MM NOT_NAMED 1925-02-05 00:00:00 TS -19.4118 44.6522 main 0 0 _____P___OP___ -1 -19.5704 44.5673 99 -19.3000 44.7000 TC 35 -19.3650 44.6892 2 13 192
1925033S12052 1925 9 SI MM NOT_NAMED 1925-02-05 03:00:00 TS -20.0399 44.5348 main 0 0 _____P___PP___ -1 -20.1497 44.4995 99 -19.9650 44.5551 TC 35 -20.0050 44.5498 2 12 187
1925033S12052 1925 9 SI MM NOT_NAMED 1925-02-05 06:00:00 TS -20.6333 44.5000 reunion main 0 0 _____O___OO___ -1 -20.7000 44.5000 99 9.90000 -20.6000 44.5000 TC 35 -20.6000 44.5000 2 11 179
1925033S12052 1925 9 SI MM NOT_NAMED 1925-02-05 09:00:00 TS -21.1621 44.5637 main 0 0 _____P___PP___ -1 -21.2246 44.5874 99 -21.1374 44.5474 TC 35 -21.1244 44.5562 2 10 169
1925033S12052 1925 9 SI MM NOT_NAMED 1925-02-05 12:00:00 TS -21.6422 44.7180 main 0 0 _____P___OP___ -1 -21.7295 44.7475 99 -21.6000 44.7000 TC 35 -21.5971 44.7064 2 10 159
1925033S12052 1925 9 SI MM NOT_NAMED 1925-02-05 15:00:00 TS -22.0847 44.9386 main 0 0 _____P___PP___ -1 -22.2104 44.9674 99 -22.0225 44.9200 TC 35 -22.0213 44.9285 2 10 152
1925033S12052 1925 9 SI MM NOT_NAMED 1925-02-05 18:00:00 TS -22.4876 45.2114 main 0 0 _____P___OO___ -1 -22.6629 45.2342 99 -22.4000 45.2000 TC 35 -22.4000 45.2000 2 9 146
1925033S12052 1925 9 SI MM NOT_NAMED 1925-02-05 21:00:00 TS -22.8641 45.5068 main 0 0 _____P___PP___ -1 -23.0824 45.5346 99 -22.7724 45.4851 TC 35 -22.7376 45.5009 2 9 142
1925033S12052 1925 9 SI MM NOT_NAMED 1925-02-06 00:00:00 TS -23.2288 45.8286 main 0 0 _____P___OP___ -1 -23.4646 45.8549 99 -23.1000 45.8000 TC 35 -23.0432 45.8221 2 9 140
1925033S12052 1925 9 SI MM NOT_NAMED 1925-02-06 03:00:00 TS -23.5763 46.1656 main 0 0 _____P___PP___ -1 -23.8052 46.1814 99 -23.3677 46.1423 TC 35 -23.3272 46.1572 2 9 139
1925033S12052 1925 9 SI MM NOT_NAMED 1925-02-06 06:00:00 TS -23.9333 46.5000 reunion main 0 0 _____O___OO___ -1 -24.1000 46.5000 99 9.90000 -23.6000 46.5000 TC 35 -23.6000 46.5000 2 10 143
1925033S12052 1925 9 SI MM NOT_NAMED 1925-02-06 09:00:00 NR -24.3466 46.7994 main 0 0 _____P________ -1 -24.3466 46.7994 99 TC 2 8 139
1925033S12052 1925 9 SI MM NOT_NAMED 1925-02-06 12:00:00 NR -24.5496 47.0792 main 0 0 _____P________ -1 -24.5496 47.0792 99 2 6 127
1925033S12052 1925 9 SI MM NOT_NAMED 1925-02-06 15:00:00 NR -24.7152 47.3421 main 10 10 _____P________ -1 -24.7152 47.3421 99 2 6 123
1925033S12052 1925 9 SI MM NOT_NAMED 1925-02-06 18:00:00 NR -24.8496 47.5908 main 41 41 _____P________ -1 -24.8496 47.5908 99 5 119
1925033S12052 1925 9 SI MM NOT_NAMED 1925-02-06 21:00:00 NR -24.9592 47.8281 main 69 69 _____P________ -1 -24.9592 47.8281 99 5 115
1925033S12052 1925 9 SI MM NOT_NAMED 1925-02-07 00:00:00 NR -25.0500 48.0568 main 96 96 _____P________ -1 -25.0500 48.0568 99 4 112
1925033S12052 1925 9 SI MM NOT_NAMED 1925-02-07 03:00:00 NR -25.1282 48.2798 main 119 119 _____P________ -1 -25.1282 48.2798 99 4 111
1925033S12052 1925 9 SI MM NOT_NAMED 1925-02-07 06:00:00 NR -25.2000 48.5000 reunion main 142 _____O________ -1 -25.2000 48.5000 99 9.90000 4 110

About IBTrACS Database

This database is a web-friendly format of International Best Track Archive for Climate Stewardship (IBTrACS), a global best track data archive curated by NOAA dating back to 1842.

Updated: 2021-10-19